createdAt,value
2018-04-08T00:00:21.761Z,46.57
2018-04-08T00:02:49.312Z,47.26
2018-04-08T00:05:16.835Z,46.96
2018-04-08T00:07:44.821Z,47.13
2018-04-08T00:10:12.347Z,47.29
2018-04-08T00:12:39.906Z,47.26
2018-04-08T00:15:07.457Z,47.58
2018-04-08T00:17:34.973Z,47.01
2018-04-08T00:20:02.726Z,46.95
2018-04-08T00:22:30.267Z,47.15
2018-04-08T00:24:58.597Z,47.28
2018-04-08T00:27:26.154Z,46.97
2018-04-08T00:29:53.802Z,47.33
2018-04-08T00:32:21.550Z,47.35
2018-04-08T00:34:49.189Z,47.80
2018-04-08T00:37:16.826Z,47.81
2018-04-08T00:39:44.377Z,48.23
2018-04-08T00:42:11.984Z,48.49
2018-04-08T00:44:39.574Z,48.76
2018-04-08T00:47:07.093Z,49.17
2018-04-08T00:49:34.653Z,49.19
2018-04-08T00:52:02.202Z,49.05
2018-04-08T00:54:30.556Z,49.11
2018-04-08T00:56:58.114Z,48.84
2018-04-08T00:59:25.646Z,49.21
2018-04-08T01:01:53.273Z,49.54
2018-04-08T01:04:20.854Z,49.71
2018-04-08T01:06:48.376Z,49.84
2018-04-08T01:09:15.926Z,50.01
2018-04-08T01:11:43.441Z,50.17
2018-04-08T01:14:11.186Z,50.41
2018-04-08T01:16:38.968Z,50.35
2018-04-08T01:19:06.498Z,50.45
2018-04-08T01:21:34.042Z,50.93
2018-04-08T01:24:01.576Z,50.75
2018-04-08T01:26:29.293Z,51.08
2018-04-08T01:28:56.810Z,50.46
2018-04-08T01:31:24.329Z,51.15
2018-04-08T01:33:51.881Z,51.29
2018-04-08T01:36:19.441Z,50.83
2018-04-08T01:38:47.184Z,50.84
2018-04-08T01:41:16.938Z,51.31
2018-04-08T01:43:44.473Z,51.83
2018-04-08T01:46:12.029Z,51.27
2018-04-08T01:48:39.571Z,51.20
2018-04-08T01:51:07.160Z,51.35
2018-04-08T01:53:34.680Z,51.87
2018-04-08T01:56:02.220Z,51.88
2018-04-08T01:58:29.774Z,51.85
2018-04-08T02:00:57.303Z,52.14
2018-04-08T02:03:25.154Z,52.47
2018-04-08T02:05:52.678Z,52.65
2018-04-08T02:08:20.199Z,52.25
2018-04-08T02:10:47.745Z,51.97
2018-04-08T02:13:15.286Z,51.93
2018-04-08T02:15:42.858Z,51.75
2018-04-08T02:18:10.376Z,52.03
2018-04-08T02:20:37.907Z,51.46
2018-04-08T02:23:05.454Z,52.00
2018-04-08T02:25:32.973Z,52.09
2018-04-08T02:28:00.556Z,51.86
2018-04-08T02:30:28.087Z,51.77
2018-04-08T02:32:55.606Z,51.69
2018-04-08T02:35:23.158Z,51.64
2018-04-08T02:37:50.675Z,51.64
2018-04-08T02:40:18.351Z,51.69
2018-04-08T02:42:45.965Z,52.03
2018-04-08T02:45:13.482Z,51.50
2018-04-08T02:47:41.037Z,51.87
2018-04-08T02:50:08.558Z,51.69
2018-04-08T02:52:36.652Z,52.29
2018-04-08T02:55:04.177Z,52.12
2018-04-08T02:57:32.087Z,52.20
2018-04-08T02:59:59.967Z,52.01
2018-04-08T03:02:27.503Z,52.06
2018-04-08T03:04:55.057Z,52.02
2018-04-08T03:07:22.591Z,52.26
2018-04-08T03:09:50.106Z,52.69
2018-04-08T03:12:17.686Z,53.24
2018-04-08T03:14:45.211Z,53.26
2018-04-08T03:17:12.941Z,53.51
2018-04-08T03:19:40.469Z,53.16
2018-04-08T03:22:07.993Z,54.06
2018-04-08T03:24:35.541Z,54.12
2018-04-08T03:27:03.065Z,54.01
2018-04-08T03:29:30.832Z,54.06
2018-04-08T03:31:58.353Z,53.96
2018-04-08T03:34:26.158Z,54.01
2018-04-08T03:36:53.706Z,53.68
2018-04-08T03:39:21.225Z,54.25
2018-04-08T03:41:49.057Z,53.96
2018-04-08T03:44:16.582Z,54.18
2018-04-08T03:46:44.105Z,54.72
2018-04-08T03:49:11.650Z,54.57
2018-04-08T03:51:39.178Z,54.75
2018-04-08T03:54:07.723Z,54.67
2018-04-08T03:56:35.244Z,54.29
2018-04-08T03:59:02.765Z,54.67
2018-04-08T04:01:30.305Z,54.58
2018-04-08T04:03:57.827Z,54.54
2018-04-08T04:06:25.526Z,54.43
2018-04-08T04:08:53.052Z,54.35
2018-04-08T04:11:20.577Z,54.83
2018-04-08T04:13:48.117Z,55.09
2018-04-08T04:16:15.635Z,54.90
2018-04-08T04:18:54.883Z,54.58
2018-04-08T04:21:34.305Z,54.96
2018-04-08T04:24:13.710Z,54.81
2018-04-08T04:26:41.234Z,54.28
2018-04-08T04:29:08.782Z,54.12
2018-04-08T04:31:36.300Z,54.07
2018-04-08T04:34:04.043Z,54.06
2018-04-08T04:36:31.569Z,54.21
2018-04-08T04:38:59.256Z,54.10
2018-04-08T04:41:26.809Z,54.17
2018-04-08T04:43:54.338Z,54.17
2018-04-08T04:46:21.904Z,54.20
2018-04-08T04:48:49.428Z,54.14
2018-04-08T04:51:17.004Z,54.80
2018-04-08T04:53:44.530Z,54.56
2018-04-08T04:56:12.326Z,54.36
2018-04-08T04:58:40.368Z,54.45
2018-04-08T05:01:07.889Z,54.07
2018-04-08T05:03:35.430Z,54.26
2018-04-08T05:06:02.977Z,54.58
2018-04-08T05:08:30.492Z,54.49
2018-04-08T05:10:58.049Z,55.04
2018-04-08T05:13:25.579Z,54.76
2018-04-08T05:15:53.096Z,54.73
2018-04-08T05:18:21.557Z,54.31
2018-04-08T05:20:49.105Z,54.43
2018-04-08T05:23:16.658Z,54.11
2018-04-08T05:25:44.185Z,54.35
2018-04-08T05:28:11.712Z,54.11
2018-04-08T05:30:39.258Z,53.36
2018-04-08T05:33:06.813Z,52.96
2018-04-08T05:35:34.462Z,53.22
2018-04-08T05:38:01.983Z,53.14
2018-04-08T05:40:29.523Z,52.64
2018-04-08T05:42:57.073Z,52.72
2018-04-08T05:45:24.601Z,52.32
2018-04-08T05:47:52.258Z,52.01
2018-04-08T05:50:19.809Z,51.84
2018-04-08T05:52:47.331Z,51.51
2018-04-08T05:55:14.895Z,50.79
2018-04-08T05:57:42.414Z,49.80
2018-04-08T06:00:10.141Z,49.53
2018-04-08T06:02:37.671Z,48.13
2018-04-08T06:05:05.224Z,46.90
2018-04-08T06:07:33.653Z,45.74
2018-04-08T06:10:01.172Z,45.18
2018-04-08T06:12:28.862Z,44.00
2018-04-08T06:14:56.396Z,43.76
2018-04-08T06:17:23.923Z,42.97
2018-04-08T06:19:51.478Z,42.26
2018-04-08T06:22:18.995Z,41.60
2018-04-08T06:24:46.842Z,40.28
2018-04-08T06:27:14.384Z,40.24
2018-04-08T06:29:41.913Z,39.48
2018-04-08T06:32:09.572Z,38.60
2018-04-08T06:34:37.182Z,38.61
2018-04-08T06:37:04.857Z,37.68
2018-04-08T06:39:32.400Z,36.94
2018-04-08T06:41:59.962Z,35.84
2018-04-08T06:44:27.506Z,34.37
2018-04-08T06:46:55.037Z,33.40
2018-04-08T06:49:22.776Z,32.77
2018-04-08T06:51:50.293Z,32.78
2018-04-08T06:54:18.625Z,31.96
2018-04-08T06:56:46.212Z,31.18
2018-04-08T06:59:13.834Z,30.89
2018-04-08T07:01:42.142Z,30.35
2018-04-08T07:04:09.990Z,29.42
2018-04-08T07:06:38.300Z,29.37
2018-04-08T07:09:05.862Z,28.84
2018-04-08T07:11:33.424Z,28.50
2018-04-08T07:14:01.507Z,28.30
2018-04-08T07:16:29.030Z,27.86
2018-04-08T07:18:56.566Z,29.16
2018-04-08T07:21:24.323Z,28.51
2018-04-08T07:23:51.875Z,29.00
2018-04-08T07:26:19.461Z,29.45
2018-04-08T07:28:46.993Z,27.48
2018-04-08T07:31:14.516Z,28.40
2018-04-08T07:33:42.073Z,27.75
2018-04-08T07:36:09.663Z,27.38
2018-04-08T07:38:37.285Z,27.15
2018-04-08T07:41:06.960Z,27.63
2018-04-08T07:43:34.535Z,26.99
2018-04-08T07:46:02.274Z,27.00
2018-04-08T07:48:29.946Z,26.57
2018-04-08T07:50:57.669Z,26.72
2018-04-08T07:53:25.199Z,25.36
2018-04-08T07:55:52.827Z,26.03
2018-04-08T07:58:20.441Z,25.05
2018-04-08T08:00:49.790Z,24.10
2018-04-08T08:03:17.451Z,23.94
2018-04-08T08:05:45.112Z,24.01
2018-04-08T08:08:12.688Z,23.55
2018-04-08T08:10:40.805Z,23.22
2018-04-08T08:13:08.499Z,23.04
2018-04-08T08:15:36.337Z,22.62
2018-04-08T08:18:04.035Z,22.31
2018-04-08T08:20:31.800Z,22.43
2018-04-08T08:22:59.445Z,22.02
2018-04-08T08:25:27.028Z,21.37
2018-04-08T08:27:54.770Z,22.35
2018-04-08T08:30:22.429Z,20.24
2018-04-08T08:32:50.078Z,20.80
2018-04-08T08:35:17.629Z,20.38
2018-04-08T08:37:45.150Z,21.97
2018-04-08T08:40:13.094Z,20.10
2018-04-08T08:42:40.642Z,19.80
2018-04-08T08:45:08.314Z,18.68
2018-04-08T08:47:35.897Z,17.83
2018-04-08T08:50:03.429Z,19.01
2018-04-08T08:52:31.473Z,17.92
2018-04-08T08:54:59.055Z,18.70
2018-04-08T08:57:26.558Z,17.59
2018-04-08T08:59:54.112Z,16.10
2018-04-08T09:02:21.640Z,15.28
2018-04-08T09:04:49.576Z,15.93
2018-04-08T09:07:17.144Z,15.10
2018-04-08T09:09:44.662Z,16.21
2018-04-08T09:12:12.268Z,14.44
2018-04-08T09:14:39.805Z,15.81
2018-04-08T09:17:07.420Z,13.87
2018-04-08T09:19:49.821Z,14.02
2018-04-08T09:22:22.514Z,14.46
2018-04-08T09:24:50.608Z,14.55
2018-04-08T09:27:18.145Z,14.06
2018-04-08T09:29:45.702Z,14.03
2018-04-08T09:32:13.217Z,14.03
2018-04-08T09:34:40.974Z,13.55
2018-04-08T09:37:08.614Z,13.06
2018-04-08T09:39:36.265Z,11.49
2018-04-08T09:42:03.845Z,12.19
2018-04-08T09:44:31.376Z,11.46
2018-04-08T09:46:59.318Z,11.51
2018-04-08T09:49:26.963Z,11.46
2018-04-08T09:51:54.585Z,10.94
2018-04-08T09:54:22.149Z,12.65
2018-04-08T09:56:49.767Z,11.41
2018-04-08T09:59:17.848Z,10.83
2018-04-08T10:01:51.247Z,10.79
2018-04-08T10:04:18.989Z,11.26
2018-04-08T10:06:46.752Z,11.48
2018-04-08T10:09:15.140Z,10.83
2018-04-08T10:11:42.726Z,10.34
2018-04-08T10:14:10.439Z,10.52
2018-04-08T10:16:38.586Z,10.90
2018-04-08T10:19:06.447Z,11.12
2018-04-08T10:21:34.159Z,10.17
2018-04-08T10:24:02.022Z,9.68
2018-04-08T10:26:29.889Z,9.61
2018-04-08T10:28:58.064Z,10.80
2018-04-08T10:31:25.826Z,11.44
2018-04-08T10:33:53.594Z,10.79
2018-04-08T10:36:21.343Z,9.12
2018-04-08T10:38:49.221Z,9.43
2018-04-08T10:41:16.858Z,8.43
2018-04-08T10:43:44.801Z,9.79
2018-04-08T10:46:12.438Z,9.33
2018-04-08T10:48:40.996Z,8.20
2018-04-08T10:51:08.676Z,8.22
2018-04-08T10:53:36.420Z,9.32
2018-04-08T10:56:04.453Z,8.47
2018-04-08T10:58:32.139Z,8.17
2018-04-08T11:00:59.711Z,7.59
2018-04-08T11:03:27.464Z,8.61
2018-04-08T11:05:55.351Z,7.50
2018-04-08T11:08:23.011Z,7.34
2018-04-08T11:10:50.851Z,6.87
2018-04-08T11:13:18.738Z,8.33
2018-04-08T11:15:46.508Z,8.67
2018-04-08T11:18:14.166Z,7.28
2018-04-08T11:20:41.826Z,7.18
2018-04-08T11:23:09.493Z,8.45
2018-04-08T11:25:37.117Z,6.21
2018-04-08T11:28:04.698Z,7.69
2018-04-08T11:30:32.575Z,7.62
2018-04-08T11:33:00.445Z,7.20
2018-04-08T11:35:27.998Z,8.41
2018-04-08T11:37:55.764Z,6.34
2018-04-08T11:40:23.476Z,5.81
2018-04-08T11:42:51.183Z,5.87
2018-04-08T11:45:18.886Z,5.50
2018-04-08T11:47:46.609Z,5.73
2018-04-08T11:50:14.334Z,6.48
2018-04-08T11:52:41.981Z,6.66
2018-04-08T11:55:09.683Z,6.73
2018-04-08T11:57:37.356Z,6.41
2018-04-08T12:00:05.105Z,4.82
2018-04-08T12:02:32.767Z,5.98
2018-04-08T12:05:00.370Z,6.94
2018-04-08T12:07:28.112Z,5.47
2018-04-08T12:09:55.662Z,6.10
2018-04-08T12:12:23.380Z,6.43
2018-04-08T12:14:51.510Z,5.67
2018-04-08T12:17:20.007Z,5.29
2018-04-08T12:19:47.755Z,6.13
2018-04-08T12:22:15.511Z,5.52
2018-04-08T12:24:43.532Z,4.50
2018-04-08T12:27:14.933Z,4.30
2018-04-08T12:29:42.810Z,5.00
2018-04-08T12:32:10.776Z,4.13
2018-04-08T12:34:38.640Z,4.21
2018-04-08T12:37:06.609Z,5.08
2018-04-08T12:39:34.579Z,5.22
2018-04-08T12:42:02.343Z,6.06
2018-04-08T12:44:30.005Z,4.99
2018-04-08T12:46:57.727Z,5.34
2018-04-08T12:49:25.532Z,6.29
2018-04-08T12:51:53.305Z,5.92
2018-04-08T12:54:21.045Z,6.72
2018-04-08T12:56:49.543Z,6.92
2018-04-08T12:59:17.187Z,7.18
2018-04-08T13:01:44.737Z,6.98
2018-04-08T13:04:12.331Z,6.99
2018-04-08T13:06:39.936Z,8.14
2018-04-08T13:09:08.798Z,7.15
2018-04-08T13:11:36.412Z,6.39
2018-04-08T13:14:04.270Z,6.12
2018-04-08T13:16:31.916Z,6.80
2018-04-08T13:18:59.727Z,7.25
2018-04-08T13:21:27.665Z,7.19
2018-04-08T13:23:55.336Z,6.96
2018-04-08T13:26:23.178Z,7.30
2018-04-08T13:28:50.885Z,7.28
2018-04-08T13:31:18.856Z,6.53
2018-04-08T13:33:46.721Z,7.72
2018-04-08T13:36:14.294Z,7.65
2018-04-08T13:38:41.988Z,6.95
2018-04-08T13:41:09.606Z,7.07
2018-04-08T13:43:37.678Z,7.84
2018-04-08T13:46:05.363Z,8.02
2018-04-08T13:48:32.970Z,9.02
2018-04-08T13:51:00.740Z,8.60
2018-04-08T13:53:28.357Z,8.82
2018-04-08T13:55:56.098Z,7.53
2018-04-08T13:58:23.792Z,7.64
2018-04-08T14:00:51.546Z,7.85
2018-04-08T14:03:19.174Z,8.16
2018-04-08T14:05:46.877Z,8.86
2018-04-08T14:08:15.121Z,8.82
2018-04-08T14:10:42.793Z,9.45
2018-04-08T14:13:10.498Z,9.29
2018-04-08T14:15:38.182Z,9.04
2018-04-08T14:18:05.903Z,9.04
2018-04-08T14:20:33.744Z,9.22
2018-04-08T14:23:01.433Z,9.23
2018-04-08T14:25:29.029Z,8.94
2018-04-08T14:27:56.699Z,9.71
2018-04-08T14:30:24.419Z,10.31
2018-04-08T14:32:52.230Z,9.83
2018-04-08T14:35:19.909Z,9.65
2018-04-08T14:37:48.188Z,9.80
2018-04-08T14:40:16.515Z,10.21
2018-04-08T14:42:44.233Z,10.73
2018-04-08T14:45:12.271Z,10.85
2018-04-08T14:47:40.157Z,11.78
2018-04-08T14:50:07.920Z,12.33
2018-04-08T14:52:35.553Z,11.83
2018-04-08T14:55:03.259Z,12.47
2018-04-08T14:57:30.943Z,12.90
2018-04-08T14:59:58.468Z,13.24
2018-04-08T15:02:26.134Z,12.97
2018-04-08T15:04:53.905Z,11.82
2018-04-08T15:07:21.516Z,13.51
2018-04-08T15:09:49.238Z,14.04
2018-04-08T15:12:16.981Z,14.94
2018-04-08T15:14:44.845Z,15.42
2018-04-08T15:17:12.819Z,15.29
2018-04-08T15:19:41.147Z,14.72
2018-04-08T15:22:11.488Z,14.88
2018-04-08T15:24:39.013Z,15.12
2018-04-08T15:27:06.948Z,15.93
2018-04-08T15:29:34.809Z,15.81
2018-04-08T15:32:02.445Z,15.30
2018-04-08T15:34:30.646Z,16.43
2018-04-08T15:36:58.655Z,16.42
2018-04-08T15:39:27.863Z,15.92
2018-04-08T15:41:55.600Z,16.22
2018-04-08T15:44:23.241Z,15.97
2018-04-08T15:46:50.994Z,16.84
2018-04-08T15:49:19.165Z,16.88
2018-04-08T15:51:46.787Z,17.09
2018-04-08T15:54:16.222Z,17.06
2018-04-08T15:56:44.078Z,18.10
2018-04-08T15:59:12.080Z,19.10
2018-04-08T16:01:39.964Z,20.01
2018-04-08T16:04:07.565Z,20.65
2018-04-08T16:06:35.473Z,21.09
2018-04-08T16:09:03.081Z,21.26
2018-04-08T16:11:30.999Z,22.04
2018-04-08T16:13:58.660Z,21.89
2018-04-08T16:16:26.738Z,22.33
2018-04-08T16:18:54.792Z,22.79
2018-04-08T16:21:22.362Z,23.05
2018-04-08T16:23:50.273Z,23.29
2018-04-08T16:26:18.203Z,24.07
2018-04-08T16:28:46.168Z,24.10
2018-04-08T16:31:14.342Z,25.14
2018-04-08T16:33:42.196Z,24.88
2018-04-08T16:36:10.079Z,24.85
2018-04-08T16:38:37.951Z,24.55
2018-04-08T16:41:05.719Z,25.37
2018-04-08T16:43:35.263Z,25.67
2018-04-08T16:46:03.097Z,25.31
2018-04-08T16:48:30.902Z,25.42
2018-04-08T16:50:58.488Z,26.31
2018-04-08T16:53:26.507Z,25.55
2018-04-08T16:55:54.542Z,25.61
2018-04-08T16:58:23.238Z,26.31
2018-04-08T17:00:51.213Z,26.88
2018-04-08T17:03:19.472Z,26.22
2018-04-08T17:05:47.547Z,26.69
2018-04-08T17:08:16.742Z,27.41
2018-04-08T17:10:44.630Z,27.46
2018-04-08T17:13:12.373Z,27.28
2018-04-08T17:15:40.341Z,27.66
2018-04-08T17:18:08.207Z,27.68
2018-04-08T17:20:36.141Z,27.94
2018-04-08T17:23:04.042Z,28.20
2018-04-08T17:25:31.757Z,28.13
2018-04-08T17:27:59.571Z,28.16
2018-04-08T17:30:27.431Z,28.37
2018-04-08T17:32:55.511Z,28.72
2018-04-08T17:35:23.274Z,28.73
2018-04-08T17:37:51.181Z,28.63
2018-04-08T17:40:19.415Z,28.85
2018-04-08T17:42:47.285Z,28.95
2018-04-08T17:45:15.730Z,28.85
2018-04-08T17:47:43.733Z,29.12
2018-04-08T17:50:11.599Z,28.12
2018-04-08T17:52:39.574Z,28.43
2018-04-08T17:55:07.436Z,27.90
2018-04-08T17:57:35.471Z,28.18
2018-04-08T18:00:03.372Z,27.87
2018-04-08T18:02:33.289Z,27.53
2018-04-08T18:05:01.439Z,27.19
2018-04-08T18:07:29.327Z,27.47
2018-04-08T18:09:57.584Z,27.45
2018-04-08T18:12:25.862Z,27.45
2018-04-08T18:14:53.849Z,27.50
2018-04-08T18:17:22.683Z,27.54
2018-04-08T18:19:50.608Z,28.08
2018-04-08T18:22:18.984Z,28.38
2018-04-08T18:24:46.850Z,28.72
2018-04-08T18:27:14.820Z,28.75
2018-04-08T18:29:42.607Z,29.08
2018-04-08T18:32:10.866Z,29.57
2018-04-08T18:34:38.829Z,30.00
2018-04-08T18:37:06.602Z,30.50
2018-04-08T18:39:34.767Z,30.73
2018-04-08T18:42:02.852Z,31.18
2018-04-08T18:44:30.809Z,31.15
2018-04-08T18:46:58.778Z,31.09
2018-04-08T18:49:26.645Z,31.22
2018-04-08T18:51:54.716Z,31.44
2018-04-08T18:54:22.611Z,31.79
2018-04-08T18:56:50.447Z,32.16
2018-04-08T18:59:18.846Z,32.56
2018-04-08T19:01:46.707Z,32.43
2018-04-08T19:04:14.936Z,33.03
2018-04-08T19:06:42.939Z,33.10
2018-04-08T19:09:10.907Z,33.10
2018-04-08T19:11:39.057Z,33.11
2018-04-08T19:14:07.052Z,33.31
2018-04-08T19:16:34.918Z,33.40
2018-04-08T19:19:02.884Z,33.29
2018-04-08T19:21:31.162Z,33.45
2018-04-08T19:23:59.962Z,33.59
2018-04-08T19:26:29.254Z,33.68
2018-04-08T19:28:57.115Z,33.71
2018-04-08T19:31:25.085Z,34.07
2018-04-08T19:33:54.184Z,34.75
2018-04-08T19:36:22.560Z,34.62
2018-04-08T19:38:50.597Z,34.83
2018-04-08T19:41:18.433Z,34.66
2018-04-08T19:43:46.429Z,35.33
2018-04-08T19:46:14.541Z,34.89
2018-04-08T19:48:43.986Z,35.32
2018-04-08T19:51:12.004Z,35.27
2018-04-08T19:53:39.806Z,35.50
2018-04-08T19:56:07.744Z,35.55
2018-04-08T19:58:36.515Z,35.31
2018-04-08T20:01:05.424Z,35.34
2018-04-08T20:03:33.330Z,35.55
2018-04-08T20:06:01.232Z,35.65
2018-04-08T20:08:29.397Z,35.52
2018-04-08T20:10:57.268Z,35.56
2018-04-08T20:13:25.907Z,35.81
2018-04-08T20:15:53.751Z,35.55
2018-04-08T20:18:21.630Z,35.84
2018-04-08T20:23:37.220Z,36.21
2018-04-08T20:26:05.593Z,36.44
2018-04-08T20:28:34.177Z,36.53
2018-04-08T20:31:02.045Z,36.52
2018-04-08T20:33:29.967Z,36.80
2018-04-08T20:35:57.834Z,36.72
2018-04-08T20:38:25.745Z,37.09
2018-04-08T20:40:53.715Z,37.47
2018-04-08T20:43:21.683Z,37.50
2018-04-08T20:45:49.573Z,37.64
2018-04-08T20:48:17.315Z,37.54
2018-04-08T20:50:46.457Z,37.41
2018-04-08T20:53:14.377Z,37.84
2018-04-08T20:55:42.245Z,37.86
2018-04-08T20:58:10.110Z,37.81
2018-04-08T21:00:37.978Z,37.95
2018-04-08T21:03:06.050Z,37.75
2018-04-08T21:05:33.801Z,38.03
2018-04-08T21:08:01.680Z,38.15
2018-04-08T21:10:29.655Z,37.69
2018-04-08T21:12:57.445Z,37.36
2018-04-08T21:15:25.937Z,37.42
2018-04-08T21:17:53.661Z,37.21
2018-04-08T21:23:54.210Z,36.75
2018-04-08T21:26:22.074Z,37.00
2018-04-08T21:28:49.739Z,36.94
2018-04-08T21:31:17.400Z,37.05
2018-04-08T21:33:45.030Z,37.45
2018-04-08T21:36:12.724Z,37.53
2018-04-08T21:38:40.592Z,37.67
2018-04-08T21:41:08.355Z,37.93
2018-04-08T21:43:36.221Z,38.89
2018-04-08T21:46:03.986Z,38.41
2018-04-08T21:48:31.749Z,38.85
2018-04-08T21:50:59.671Z,39.00
2018-04-08T21:53:27.537Z,38.95
2018-04-08T21:55:55.658Z,39.12
2018-04-08T21:58:23.296Z,39.16
2018-04-08T22:00:50.890Z,39.54
2018-04-08T22:03:19.153Z,39.50
2018-04-08T22:05:49.738Z,39.40
2018-04-08T22:08:17.341Z,40.28
2018-04-08T22:10:45.006Z,40.21
2018-04-08T22:13:12.613Z,40.11
2018-04-08T22:15:40.405Z,40.26
2018-04-08T22:18:07.924Z,40.49
2018-04-08T22:20:35.487Z,40.54
2018-04-08T22:23:03.042Z,40.85
2018-04-08T22:25:30.674Z,40.80
2018-04-08T22:27:58.296Z,41.35
2018-04-08T22:30:28.701Z,41.61
2018-04-08T22:32:56.222Z,41.59
2018-04-08T22:35:23.829Z,41.74
2018-04-08T22:37:51.441Z,41.97
2018-04-08T22:40:19.057Z,43.63
2018-04-08T22:42:46.743Z,43.36
2018-04-08T22:45:14.282Z,43.76
2018-04-08T22:47:41.843Z,44.32
2018-04-08T22:50:09.544Z,44.78
2018-04-08T22:52:37.151Z,44.93
2018-04-08T22:55:04.673Z,45.06
2018-04-08T22:57:32.325Z,44.77
2018-04-08T22:59:59.900Z,45.00
2018-04-08T23:02:27.529Z,44.73
2018-04-08T23:04:55.286Z,45.00
2018-04-08T23:07:22.834Z,45.34
2018-04-08T23:09:50.358Z,45.05
2018-04-08T23:12:17.918Z,45.03
2018-04-08T23:14:45.450Z,45.38
2018-04-08T23:17:13.277Z,45.26
2018-04-08T23:19:40.951Z,44.80
2018-04-08T23:22:08.644Z,44.74
2018-04-08T23:24:37.214Z,45.20
2018-04-08T23:27:04.818Z,44.92
2018-04-08T23:29:32.622Z,45.19
2018-04-08T23:32:00.148Z,45.25
2018-04-08T23:34:27.675Z,45.32
2018-04-08T23:36:55.239Z,45.20
2018-04-08T23:39:22.797Z,45.34
2018-04-08T23:41:50.458Z,45.70
2018-04-08T23:44:18.899Z,45.64
2018-04-08T23:46:46.430Z,45.63
2018-04-08T23:49:14.037Z,45.88
2018-04-08T23:51:41.581Z,45.85
2018-04-08T23:54:09.234Z,45.70
2018-04-08T23:56:36.770Z,45.67
2018-04-08T23:59:04.784Z,46.06
